sensor_id;sensor_type;location;lat;lon;timestamp;P1;durP1;ratioP1;P2;durP2;ratioP2
15425;SDS011;7812;50.072;7.036;2023-06-04T00:00:48;3.30;;;2.37;;
15425;SDS011;7812;50.072;7.036;2023-06-04T00:03:14;2.53;;;2.20;;
15425;SDS011;7812;50.072;7.036;2023-06-04T00:05:41;3.63;;;2.30;;
15425;SDS011;7812;50.072;7.036;2023-06-04T00:08:07;2.23;;;2.03;;
15425;SDS011;7812;50.072;7.036;2023-06-04T00:10:32;2.47;;;2.17;;
15425;SDS011;7812;50.072;7.036;2023-06-04T00:12:59;2.57;;;2.10;;
15425;SDS011;7812;50.072;7.036;2023-06-04T00:15:25;3.27;;;2.00;;
15425;SDS011;7812;50.072;7.036;2023-06-04T00:17:51;2.63;;;2.10;;
15425;SDS011;7812;50.072;7.036;2023-06-04T00:20:17;3.13;;;2.30;;
15425;SDS011;7812;50.072;7.036;2023-06-04T00:22:43;4.57;;;2.13;;
15425;SDS011;7812;50.072;7.036;2023-06-04T00:25:09;3.20;;;2.20;;
15425;SDS011;7812;50.072;7.036;2023-06-04T00:27:35;1.63;;;1.53;;
15425;SDS011;7812;50.072;7.036;2023-06-04T00:30:02;3.23;;;2.03;;
15425;SDS011;7812;50.072;7.036;2023-06-04T00:32:28;3.67;;;2.13;;
15425;SDS011;7812;50.072;7.036;2023-06-04T00:34:54;3.20;;;2.17;;
15425;SDS011;7812;50.072;7.036;2023-06-04T00:37:22;2.47;;;2.10;;
15425;SDS011;7812;50.072;7.036;2023-06-04T00:39:49;2.90;;;1.90;;
15425;SDS011;7812;50.072;7.036;2023-06-04T00:42:15;3.10;;;2.13;;
15425;SDS011;7812;50.072;7.036;2023-06-04T00:44:40;3.73;;;2.30;;
15425;SDS011;7812;50.072;7.036;2023-06-04T00:47:12;2.33;;;2.13;;
15425;SDS011;7812;50.072;7.036;2023-06-04T00:49:39;3.00;;;2.10;;
15425;SDS011;7812;50.072;7.036;2023-06-04T00:52:06;2.50;;;2.27;;
15425;SDS011;7812;50.072;7.036;2023-06-04T00:54:33;3.43;;;2.20;;
15425;SDS011;7812;50.072;7.036;2023-06-04T00:56:59;3.97;;;2.20;;
15425;SDS011;7812;50.072;7.036;2023-06-04T00:59:25;2.33;;;2.03;;
15425;SDS011;7812;50.072;7.036;2023-06-04T01:07:04;3.93;;;2.10;;
15425;SDS011;7812;50.072;7.036;2023-06-04T01:09:34;2.20;;;1.80;;
15425;SDS011;7812;50.072;7.036;2023-06-04T01:12:03;3.43;;;2.30;;
15425;SDS011;7812;50.072;7.036;2023-06-04T01:14:30;2.03;;;1.80;;
15425;SDS011;7812;50.072;7.036;2023-06-04T01:17:03;3.00;;;2.20;;
15425;SDS011;7812;50.072;7.036;2023-06-04T01:22:32;2.53;;;2.00;;
15425;SDS011;7812;50.072;7.036;2023-06-04T01:27:52;3.30;;;2.10;;
15425;SDS011;7812;50.072;7.036;2023-06-04T01:30:24;2.60;;;2.00;;
15425;SDS011;7812;50.072;7.036;2023-06-04T01:32:52;2.97;;;2.37;;
15425;SDS011;7812;50.072;7.036;2023-06-04T01:35:19;3.47;;;1.90;;
15425;SDS011;7812;50.072;7.036;2023-06-04T01:37:46;2.27;;;2.07;;
15425;SDS011;7812;50.072;7.036;2023-06-04T01:40:12;3.47;;;2.20;;
15425;SDS011;7812;50.072;7.036;2023-06-04T01:42:40;2.10;;;1.90;;
15425;SDS011;7812;50.072;7.036;2023-06-04T01:45:07;2.60;;;1.90;;
15425;SDS011;7812;50.072;7.036;2023-06-04T01:47:34;2.87;;;1.93;;
15425;SDS011;7812;50.072;7.036;2023-06-04T01:50:02;2.77;;;1.97;;
15425;SDS011;7812;50.072;7.036;2023-06-04T01:52:28;2.30;;;2.10;;
15425;SDS011;7812;50.072;7.036;2023-06-04T01:54:54;4.10;;;2.03;;
15425;SDS011;7812;50.072;7.036;2023-06-04T01:57:23;2.13;;;1.83;;
15425;SDS011;7812;50.072;7.036;2023-06-04T01:59:49;3.03;;;2.07;;
15425;SDS011;7812;50.072;7.036;2023-06-04T02:02:15;2.87;;;2.20;;
15425;SDS011;7812;50.072;7.036;2023-06-04T02:04:41;3.40;;;1.90;;
15425;SDS011;7812;50.072;7.036;2023-06-04T02:07:10;3.40;;;1.90;;
15425;SDS011;7812;50.072;7.036;2023-06-04T02:09:42;3.23;;;2.13;;
15425;SDS011;7812;50.072;7.036;2023-06-04T02:12:08;3.90;;;1.63;;
15425;SDS011;7812;50.072;7.036;2023-06-04T02:14:34;3.07;;;1.80;;
15425;SDS011;7812;50.072;7.036;2023-06-04T02:17:00;2.53;;;2.00;;
15425;SDS011;7812;50.072;7.036;2023-06-04T02:19:26;2.20;;;2.00;;
15425;SDS011;7812;50.072;7.036;2023-06-04T02:21:53;2.30;;;1.90;;
15425;SDS011;7812;50.072;7.036;2023-06-04T02:24:19;2.30;;;1.93;;
15425;SDS011;7812;50.072;7.036;2023-06-04T02:26:45;3.23;;;1.80;;
15425;SDS011;7812;50.072;7.036;2023-06-04T02:29:11;4.03;;;2.00;;
15425;SDS011;7812;50.072;7.036;2023-06-04T02:31:37;2.40;;;1.80;;
15425;SDS011;7812;50.072;7.036;2023-06-04T02:34:03;2.20;;;2.00;;
15425;SDS011;7812;50.072;7.036;2023-06-04T02:36:28;2.93;;;2.20;;
15425;SDS011;7812;50.072;7.036;2023-06-04T02:38:55;2.50;;;1.90;;
15425;SDS011;7812;50.072;7.036;2023-06-04T02:41:21;2.17;;;1.97;;
15425;SDS011;7812;50.072;7.036;2023-06-04T02:43:47;2.67;;;1.90;;
15425;SDS011;7812;50.072;7.036;2023-06-04T02:46:13;4.23;;;2.03;;
15425;SDS011;7812;50.072;7.036;2023-06-04T02:48:39;2.20;;;1.80;;
15425;SDS011;7812;50.072;7.036;2023-06-04T02:51:05;2.27;;;1.87;;
15425;SDS011;7812;50.072;7.036;2023-06-04T02:53:30;2.83;;;2.00;;
15425;SDS011;7812;50.072;7.036;2023-06-04T02:55:56;2.07;;;1.83;;
15425;SDS011;7812;50.072;7.036;2023-06-04T02:58:22;2.13;;;1.90;;
15425;SDS011;7812;50.072;7.036;2023-06-04T03:00:51;4.07;;;1.67;;
15425;SDS011;7812;50.072;7.036;2023-06-04T03:03:17;3.70;;;1.77;;
15425;SDS011;7812;50.072;7.036;2023-06-04T03:05:43;3.53;;;2.10;;
15425;SDS011;7812;50.072;7.036;2023-06-04T03:08:09;2.90;;;1.90;;
15425;SDS011;7812;50.072;7.036;2023-06-04T03:10:34;2.87;;;2.10;;
15425;SDS011;7812;50.072;7.036;2023-06-04T03:13:00;2.57;;;1.83;;
15425;SDS011;7812;50.072;7.036;2023-06-04T03:15:26;2.83;;;2.23;;
15425;SDS011;7812;50.072;7.036;2023-06-04T03:17:52;1.97;;;1.60;;
15425;SDS011;7812;50.072;7.036;2023-06-04T03:20:17;3.13;;;1.80;;
15425;SDS011;7812;50.072;7.036;2023-06-04T03:22:43;2.40;;;1.73;;
15425;SDS011;7812;50.072;7.036;2023-06-04T03:25:10;3.43;;;1.90;;
15425;SDS011;7812;50.072;7.036;2023-06-04T03:27:36;3.90;;;2.13;;
15425;SDS011;7812;50.072;7.036;2023-06-04T03:30:20;2.20;;;2.00;;
15425;SDS011;7812;50.072;7.036;2023-06-04T03:32:46;1.83;;;1.57;;
15425;SDS011;7812;50.072;7.036;2023-06-04T03:35:12;2.20;;;2.00;;
15425;SDS011;7812;50.072;7.036;2023-06-04T03:37:38;3.13;;;1.77;;
15425;SDS011;7812;50.072;7.036;2023-06-04T03:40:12;3.93;;;2.00;;
15425;SDS011;7812;50.072;7.036;2023-06-04T03:42:38;2.30;;;1.93;;
15425;SDS011;7812;50.072;7.036;2023-06-04T03:45:04;3.13;;;1.70;;
15425;SDS011;7812;50.072;7.036;2023-06-04T03:47:31;3.23;;;1.90;;
15425;SDS011;7812;50.072;7.036;2023-06-04T03:49:57;2.00;;;1.80;;
15425;SDS011;7812;50.072;7.036;2023-06-04T03:52:22;3.03;;;2.20;;
15425;SDS011;7812;50.072;7.036;2023-06-04T03:54:48;2.13;;;1.93;;
15425;SDS011;7812;50.072;7.036;2023-06-04T03:57:14;2.90;;;1.80;;
15425;SDS011;7812;50.072;7.036;2023-06-04T03:59:39;2.40;;;2.03;;
15425;SDS011;7812;50.072;7.036;2023-06-04T04:02:05;3.43;;;1.80;;
15425;SDS011;7812;50.072;7.036;2023-06-04T04:04:31;2.20;;;1.87;;
15425;SDS011;7812;50.072;7.036;2023-06-04T04:06:58;2.43;;;1.90;;
15425;SDS011;7812;50.072;7.036;2023-06-04T04:09:25;2.77;;;1.83;;
15425;SDS011;7812;50.072;7.036;2023-06-04T04:11:51;2.27;;;1.83;;
15425;SDS011;7812;50.072;7.036;2023-06-04T04:14:16;2.17;;;1.80;;
15425;SDS011;7812;50.072;7.036;2023-06-04T04:16:42;2.37;;;2.17;;
15425;SDS011;7812;50.072;7.036;2023-06-04T04:19:08;3.00;;;1.80;;
15425;SDS011;7812;50.072;7.036;2023-06-04T04:21:36;2.20;;;1.97;;
15425;SDS011;7812;50.072;7.036;2023-06-04T04:24:03;2.33;;;1.77;;
15425;SDS011;7812;50.072;7.036;2023-06-04T04:26:29;3.10;;;2.00;;
15425;SDS011;7812;50.072;7.036;2023-06-04T04:28:55;3.63;;;2.20;;
15425;SDS011;7812;50.072;7.036;2023-06-04T04:31:25;1.87;;;1.77;;
15425;SDS011;7812;50.072;7.036;2023-06-04T04:33:55;1.93;;;1.70;;
15425;SDS011;7812;50.072;7.036;2023-06-04T04:36:21;2.00;;;1.80;;
15425;SDS011;7812;50.072;7.036;2023-06-04T04:38:47;3.03;;;2.10;;
15425;SDS011;7812;50.072;7.036;2023-06-04T04:41:19;4.27;;;2.00;;
15425;SDS011;7812;50.072;7.036;2023-06-04T04:43:47;1.80;;;1.70;;
15425;SDS011;7812;50.072;7.036;2023-06-04T04:46:13;4.07;;;1.70;;
15425;SDS011;7812;50.072;7.036;2023-06-04T04:48:39;1.90;;;1.70;;
15425;SDS011;7812;50.072;7.036;2023-06-04T04:51:07;3.77;;;2.00;;
15425;SDS011;7812;50.072;7.036;2023-06-04T04:53:32;2.30;;;1.90;;
15425;SDS011;7812;50.072;7.036;2023-06-04T04:55:58;2.23;;;1.70;;
15425;SDS011;7812;50.072;7.036;2023-06-04T04:58:24;2.60;;;1.87;;
15425;SDS011;7812;50.072;7.036;2023-06-04T05:00:50;2.70;;;1.57;;
15425;SDS011;7812;50.072;7.036;2023-06-04T05:03:15;1.83;;;1.53;;
15425;SDS011;7812;50.072;7.036;2023-06-04T05:05:41;2.63;;;1.83;;
15425;SDS011;7812;50.072;7.036;2023-06-04T05:08:08;1.77;;;1.60;;
15425;SDS011;7812;50.072;7.036;2023-06-04T05:10:34;1.60;;;1.50;;
15425;SDS011;7812;50.072;7.036;2023-06-04T05:13:01;2.47;;;1.83;;
15425;SDS011;7812;50.072;7.036;2023-06-04T05:15:26;2.30;;;1.70;;
15425;SDS011;7812;50.072;7.036;2023-06-04T05:17:52;2.33;;;1.77;;
15425;SDS011;7812;50.072;7.036;2023-06-04T05:20:20;2.37;;;1.97;;
15425;SDS011;7812;50.072;7.036;2023-06-04T05:22:47;2.13;;;1.80;;
15425;SDS011;7812;50.072;7.036;2023-06-04T05:25:13;2.90;;;1.90;;
15425;SDS011;7812;50.072;7.036;2023-06-04T05:27:40;2.70;;;1.50;;
15425;SDS011;7812;50.072;7.036;2023-06-04T05:30:08;1.50;;;1.40;;
15425;SDS011;7812;50.072;7.036;2023-06-04T05:32:36;3.93;;;1.70;;
15425;SDS011;7812;50.072;7.036;2023-06-04T05:35:05;3.50;;;2.03;;
15425;SDS011;7812;50.072;7.036;2023-06-04T05:37:32;2.10;;;1.70;;
15425;SDS011;7812;50.072;7.036;2023-06-04T05:39:59;2.03;;;1.60;;
15425;SDS011;7812;50.072;7.036;2023-06-04T05:42:26;2.47;;;1.73;;
15425;SDS011;7812;50.072;7.036;2023-06-04T05:44:52;3.53;;;2.10;;
15425;SDS011;7812;50.072;7.036;2023-06-04T05:47:17;1.67;;;1.53;;
15425;SDS011;7812;50.072;7.036;2023-06-04T05:49:43;4.97;;;1.60;;
15425;SDS011;7812;50.072;7.036;2023-06-04T05:52:09;5.00;;;1.80;;
15425;SDS011;7812;50.072;7.036;2023-06-04T05:54:35;1.60;;;1.50;;
15425;SDS011;7812;50.072;7.036;2023-06-04T05:57:03;1.73;;;1.60;;
15425;SDS011;7812;50.072;7.036;2023-06-04T05:59:29;2.93;;;1.90;;
15425;SDS011;7812;50.072;7.036;2023-06-04T06:01:55;2.93;;;1.67;;
15425;SDS011;7812;50.072;7.036;2023-06-04T06:04:21;1.60;;;1.50;;
15425;SDS011;7812;50.072;7.036;2023-06-04T06:06:47;1.93;;;1.60;;
15425;SDS011;7812;50.072;7.036;2023-06-04T06:09:13;2.60;;;1.40;;
15425;SDS011;7812;50.072;7.036;2023-06-04T06:11:40;4.17;;;1.60;;
15425;SDS011;7812;50.072;7.036;2023-06-04T06:14:06;3.43;;;1.70;;
15425;SDS011;7812;50.072;7.036;2023-06-04T06:16:31;2.20;;;1.50;;
15425;SDS011;7812;50.072;7.036;2023-06-04T06:18:57;2.73;;;1.67;;
15425;SDS011;7812;50.072;7.036;2023-06-04T06:21:23;1.60;;;1.50;;
15425;SDS011;7812;50.072;7.036;2023-06-04T06:23:51;3.37;;;1.50;;
15425;SDS011;7812;50.072;7.036;2023-06-04T06:26:16;2.33;;;1.60;;
15425;SDS011;7812;50.072;7.036;2023-06-04T06:28:42;2.10;;;1.20;;
15425;SDS011;7812;50.072;7.036;2023-06-04T06:31:09;3.00;;;1.67;;
15425;SDS011;7812;50.072;7.036;2023-06-04T06:33:34;3.37;;;1.90;;
15425;SDS011;7812;50.072;7.036;2023-06-04T06:36:03;2.00;;;1.30;;
15425;SDS011;7812;50.072;7.036;2023-06-04T06:38:28;3.17;;;1.40;;
15425;SDS011;7812;50.072;7.036;2023-06-04T06:40:54;5.63;;;1.70;;
15425;SDS011;7812;50.072;7.036;2023-06-04T06:43:20;3.60;;;1.70;;
15425;SDS011;7812;50.072;7.036;2023-06-04T06:45:47;2.10;;;1.33;;
15425;SDS011;7812;50.072;7.036;2023-06-04T06:48:12;2.03;;;1.60;;
15425;SDS011;7812;50.072;7.036;2023-06-04T06:50:38;2.17;;;1.33;;
15425;SDS011;7812;50.072;7.036;2023-06-04T06:53:04;2.63;;;1.43;;
15425;SDS011;7812;50.072;7.036;2023-06-04T06:55:29;3.30;;;1.43;;
15425;SDS011;7812;50.072;7.036;2023-06-04T06:57:55;3.40;;;1.23;;
15425;SDS011;7812;50.072;7.036;2023-06-04T07:00:21;3.20;;;1.50;;
15425;SDS011;7812;50.072;7.036;2023-06-04T07:02:47;3.43;;;1.50;;
15425;SDS011;7812;50.072;7.036;2023-06-04T07:05:13;2.90;;;1.40;;
15425;SDS011;7812;50.072;7.036;2023-06-04T07:07:40;3.33;;;1.77;;
15425;SDS011;7812;50.072;7.036;2023-06-04T07:10:07;3.90;;;1.40;;
15425;SDS011;7812;50.072;7.036;2023-06-04T07:12:33;3.50;;;1.37;;
15425;SDS011;7812;50.072;7.036;2023-06-04T07:14:58;2.40;;;1.43;;
15425;SDS011;7812;50.072;7.036;2023-06-04T07:17:24;2.23;;;1.60;;
15425;SDS011;7812;50.072;7.036;2023-06-04T07:19:50;2.73;;;1.40;;
15425;SDS011;7812;50.072;7.036;2023-06-04T07:22:17;3.07;;;1.53;;
15425;SDS011;7812;50.072;7.036;2023-06-04T07:24:43;2.90;;;1.67;;
15425;SDS011;7812;50.072;7.036;2023-06-04T07:27:12;2.50;;;1.20;;
15425;SDS011;7812;50.072;7.036;2023-06-04T07:29:38;2.20;;;1.40;;
15425;SDS011;7812;50.072;7.036;2023-06-04T07:32:04;2.33;;;1.20;;
15425;SDS011;7812;50.072;7.036;2023-06-04T07:34:30;1.50;;;1.40;;
15425;SDS011;7812;50.072;7.036;2023-06-04T07:36:55;2.33;;;1.10;;
15425;SDS011;7812;50.072;7.036;2023-06-04T07:39:21;4.33;;;1.37;;
15425;SDS011;7812;50.072;7.036;2023-06-04T07:41:47;2.93;;;1.40;;
15425;SDS011;7812;50.072;7.036;2023-06-04T07:44:14;2.97;;;1.40;;
15425;SDS011;7812;50.072;7.036;2023-06-04T07:46:39;1.50;;;1.33;;
15425;SDS011;7812;50.072;7.036;2023-06-04T07:49:06;2.03;;;1.50;;
15425;SDS011;7812;50.072;7.036;2023-06-04T07:51:33;1.90;;;1.43;;
15425;SDS011;7812;50.072;7.036;2023-06-04T07:53:59;1.97;;;1.30;;
15425;SDS011;7812;50.072;7.036;2023-06-04T07:56:27;2.17;;;1.30;;
15425;SDS011;7812;50.072;7.036;2023-06-04T07:58:52;3.00;;;1.40;;
15425;SDS011;7812;50.072;7.036;2023-06-04T08:01:18;1.43;;;1.33;;
15425;SDS011;7812;50.072;7.036;2023-06-04T08:03:43;1.57;;;1.20;;
15425;SDS011;7812;50.072;7.036;2023-06-04T08:06:09;1.70;;;1.10;;
15425;SDS011;7812;50.072;7.036;2023-06-04T08:08:35;1.80;;;1.30;;
15425;SDS011;7812;50.072;7.036;2023-06-04T08:11:01;2.13;;;1.50;;
15425;SDS011;7812;50.072;7.036;2023-06-04T08:13:27;2.00;;;1.20;;
15425;SDS011;7812;50.072;7.036;2023-06-04T08:15:53;2.03;;;1.50;;
15425;SDS011;7812;50.072;7.036;2023-06-04T08:18:19;2.60;;;1.20;;
15425;SDS011;7812;50.072;7.036;2023-06-04T08:20:45;2.13;;;1.47;;
15425;SDS011;7812;50.072;7.036;2023-06-04T08:23:10;3.20;;;1.60;;
15425;SDS011;7812;50.072;7.036;2023-06-04T08:25:36;1.90;;;1.40;;
15425;SDS011;7812;50.072;7.036;2023-06-04T08:28:02;3.40;;;1.50;;
15425;SDS011;7812;50.072;7.036;2023-06-04T08:30:28;2.53;;;1.30;;
15425;SDS011;7812;50.072;7.036;2023-06-04T08:32:54;3.03;;;1.50;;
15425;SDS011;7812;50.072;7.036;2023-06-04T08:35:19;4.00;;;1.07;;
15425;SDS011;7812;50.072;7.036;2023-06-04T08:37:46;2.90;;;1.30;;
15425;SDS011;7812;50.072;7.036;2023-06-04T08:40:12;2.70;;;1.30;;
15425;SDS011;7812;50.072;7.036;2023-06-04T08:42:41;4.27;;;1.50;;
15425;SDS011;7812;50.072;7.036;2023-06-04T08:45:09;2.07;;;1.30;;
15425;SDS011;7812;50.072;7.036;2023-06-04T08:47:37;2.63;;;1.20;;
15425;SDS011;7812;50.072;7.036;2023-06-04T08:50:08;3.03;;;1.50;;
15425;SDS011;7812;50.072;7.036;2023-06-04T08:52:37;2.90;;;1.40;;
15425;SDS011;7812;50.072;7.036;2023-06-04T08:55:04;5.03;;;1.33;;
15425;SDS011;7812;50.072;7.036;2023-06-04T08:57:30;2.37;;;1.30;;
15425;SDS011;7812;50.072;7.036;2023-06-04T08:59:56;2.83;;;1.70;;
15425;SDS011;7812;50.072;7.036;2023-06-04T09:02:22;2.30;;;1.50;;
15425;SDS011;7812;50.072;7.036;2023-06-04T09:04:51;1.93;;;1.30;;
15425;SDS011;7812;50.072;7.036;2023-06-04T09:07:18;3.00;;;1.40;;
15425;SDS011;7812;50.072;7.036;2023-06-04T09:09:45;2.03;;;1.30;;
15425;SDS011;7812;50.072;7.036;2023-06-04T09:12:20;2.80;;;1.30;;
15425;SDS011;7812;50.072;7.036;2023-06-04T09:14:48;1.30;;;1.20;;
15425;SDS011;7812;50.072;7.036;2023-06-04T09:17:15;2.10;;;1.30;;
15425;SDS011;7812;50.072;7.036;2023-06-04T09:20:01;2.27;;;1.50;;
15425;SDS011;7812;50.072;7.036;2023-06-04T09:22:34;3.10;;;1.30;;
15425;SDS011;7812;50.072;7.036;2023-06-04T09:25:03;2.53;;;1.50;;
15425;SDS011;7812;50.072;7.036;2023-06-04T09:27:39;1.70;;;1.40;;
15425;SDS011;7812;50.072;7.036;2023-06-04T09:30:05;1.93;;;1.40;;
15425;SDS011;7812;50.072;7.036;2023-06-04T09:32:34;2.13;;;1.37;;
15425;SDS011;7812;50.072;7.036;2023-06-04T09:37:41;3.63;;;1.60;;
15425;SDS011;7812;50.072;7.036;2023-06-04T09:40:08;2.13;;;1.20;;
15425;SDS011;7812;50.072;7.036;2023-06-04T09:42:44;1.63;;;1.20;;
15425;SDS011;7812;50.072;7.036;2023-06-04T09:45:11;1.47;;;1.20;;
15425;SDS011;7812;50.072;7.036;2023-06-04T09:47:41;1.30;;;1.20;;
15425;SDS011;7812;50.072;7.036;2023-06-04T09:50:07;1.10;;;1.00;;
15425;SDS011;7812;50.072;7.036;2023-06-04T09:52:34;1.57;;;1.20;;
15425;SDS011;7812;50.072;7.036;2023-06-04T09:55:00;2.10;;;1.27;;
15425;SDS011;7812;50.072;7.036;2023-06-04T09:57:26;3.57;;;1.70;;
15425;SDS011;7812;50.072;7.036;2023-06-04T09:59:54;1.97;;;1.20;;
15425;SDS011;7812;50.072;7.036;2023-06-04T10:02:22;3.17;;;1.40;;
15425;SDS011;7812;50.072;7.036;2023-06-04T10:04:54;2.87;;;1.50;;
15425;SDS011;7812;50.072;7.036;2023-06-04T10:07:24;2.50;;;1.17;;
15425;SDS011;7812;50.072;7.036;2023-06-04T10:09:51;1.50;;;1.30;;
15425;SDS011;7812;50.072;7.036;2023-06-04T10:12:30;1.30;;;1.20;;
15425;SDS011;7812;50.072;7.036;2023-06-04T10:15:07;1.83;;;1.30;;
15425;SDS011;7812;50.072;7.036;2023-06-04T10:17:36;2.67;;;1.50;;
15425;SDS011;7812;50.072;7.036;2023-06-04T10:20:03;2.67;;;1.40;;
15425;SDS011;7812;50.072;7.036;2023-06-04T10:22:30;3.73;;;1.30;;
15425;SDS011;7812;50.072;7.036;2023-06-04T10:24:57;3.50;;;1.20;;
15425;SDS011;7812;50.072;7.036;2023-06-04T10:27:23;2.73;;;1.57;;
15425;SDS011;7812;50.072;7.036;2023-06-04T10:29:50;1.97;;;1.50;;
15425;SDS011;7812;50.072;7.036;2023-06-04T10:32:17;2.97;;;1.27;;
15425;SDS011;7812;50.072;7.036;2023-06-04T10:34:43;3.10;;;1.20;;
15425;SDS011;7812;50.072;7.036;2023-06-04T10:37:21;2.90;;;1.20;;
15425;SDS011;7812;50.072;7.036;2023-06-04T10:39:51;1.20;;;1.10;;
15425;SDS011;7812;50.072;7.036;2023-06-04T10:42:18;1.40;;;1.13;;
15425;SDS011;7812;50.072;7.036;2023-06-04T10:44:46;2.70;;;1.60;;
15425;SDS011;7812;50.072;7.036;2023-06-04T10:47:23;1.30;;;1.20;;
15425;SDS011;7812;50.072;7.036;2023-06-04T10:49:54;2.37;;;1.63;;
15425;SDS011;7812;50.072;7.036;2023-06-04T10:52:23;2.23;;;1.13;;
15425;SDS011;7812;50.072;7.036;2023-06-04T10:54:48;1.83;;;1.20;;
15425;SDS011;7812;50.072;7.036;2023-06-04T10:57:17;1.30;;;1.20;;
15425;SDS011;7812;50.072;7.036;2023-06-04T10:59:55;2.27;;;1.40;;
15425;SDS011;7812;50.072;7.036;2023-06-04T11:02:21;4.37;;;1.33;;
15425;SDS011;7812;50.072;7.036;2023-06-04T11:04:47;3.43;;;1.50;;
15425;SDS011;7812;50.072;7.036;2023-06-04T11:07:26;1.77;;;1.30;;
15425;SDS011;7812;50.072;7.036;2023-06-04T11:09:52;2.23;;;1.20;;
15425;SDS011;7812;50.072;7.036;2023-06-04T11:12:18;2.97;;;1.30;;
15425;SDS011;7812;50.072;7.036;2023-06-04T11:14:54;2.17;;;1.33;;
15425;SDS011;7812;50.072;7.036;2023-06-04T11:17:20;2.10;;;1.43;;
15425;SDS011;7812;50.072;7.036;2023-06-04T11:19:46;2.97;;;1.20;;
15425;SDS011;7812;50.072;7.036;2023-06-04T11:22:11;2.63;;;1.27;;
15425;SDS011;7812;50.072;7.036;2023-06-04T11:24:37;4.63;;;1.43;;
15425;SDS011;7812;50.072;7.036;2023-06-04T11:27:03;3.80;;;1.70;;
15425;SDS011;7812;50.072;7.036;2023-06-04T11:29:29;2.87;;;1.47;;
15425;SDS011;7812;50.072;7.036;2023-06-04T11:31:58;3.50;;;1.33;;
15425;SDS011;7812;50.072;7.036;2023-06-04T11:34:27;3.20;;;1.37;;
15425;SDS011;7812;50.072;7.036;2023-06-04T11:36:54;1.97;;;1.20;;
15425;SDS011;7812;50.072;7.036;2023-06-04T11:39:20;5.77;;;1.33;;
15425;SDS011;7812;50.072;7.036;2023-06-04T11:41:47;1.57;;;1.27;;
15425;SDS011;7812;50.072;7.036;2023-06-04T11:44:13;2.90;;;1.60;;
15425;SDS011;7812;50.072;7.036;2023-06-04T11:46:40;2.73;;;1.40;;
15425;SDS011;7812;50.072;7.036;2023-06-04T11:49:08;2.93;;;1.50;;
15425;SDS011;7812;50.072;7.036;2023-06-04T11:51:37;2.73;;;1.40;;
15425;SDS011;7812;50.072;7.036;2023-06-04T11:54:03;1.40;;;1.27;;
15425;SDS011;7812;50.072;7.036;2023-06-04T11:56:29;2.10;;;1.47;;
15425;SDS011;7812;50.072;7.036;2023-06-04T11:58:54;4.33;;;1.47;;
15425;SDS011;7812;50.072;7.036;2023-06-04T12:01:21;1.50;;;1.40;;
15425;SDS011;7812;50.072;7.036;2023-06-04T12:03:48;1.77;;;1.40;;
15425;SDS011;7812;50.072;7.036;2023-06-04T12:06:20;1.47;;;1.27;;
15425;SDS011;7812;50.072;7.036;2023-06-04T12:08:51;2.73;;;1.50;;
15425;SDS011;7812;50.072;7.036;2023-06-04T12:11:27;1.83;;;1.53;;
15425;SDS011;7812;50.072;7.036;2023-06-04T12:13:56;1.63;;;1.53;;
15425;SDS011;7812;50.072;7.036;2023-06-04T12:16:32;2.87;;;1.43;;
15425;SDS011;7812;50.072;7.036;2023-06-04T12:19:32;2.60;;;1.50;;
15425;SDS011;7812;50.072;7.036;2023-06-04T12:22:04;1.73;;;1.40;;
15425;SDS011;7812;50.072;7.036;2023-06-04T12:24:32;1.47;;;1.20;;
15425;SDS011;7812;50.072;7.036;2023-06-04T12:27:14;3.37;;;1.50;;
15425;SDS011;7812;50.072;7.036;2023-06-04T12:29:40;5.60;;;1.87;;
15425;SDS011;7812;50.072;7.036;2023-06-04T12:32:07;2.13;;;1.20;;
15425;SDS011;7812;50.072;7.036;2023-06-04T12:34:34;2.73;;;1.20;;
15425;SDS011;7812;50.072;7.036;2023-06-04T12:37:00;2.40;;;1.33;;
15425;SDS011;7812;50.072;7.036;2023-06-04T12:39:28;1.80;;;1.40;;
15425;SDS011;7812;50.072;7.036;2023-06-04T12:41:55;1.87;;;1.23;;
15425;SDS011;7812;50.072;7.036;2023-06-04T12:44:21;2.13;;;1.23;;
15425;SDS011;7812;50.072;7.036;2023-06-04T12:46:48;1.93;;;1.47;;
15425;SDS011;7812;50.072;7.036;2023-06-04T12:49:15;1.50;;;1.40;;
15425;SDS011;7812;50.072;7.036;2023-06-04T12:51:40;1.90;;;1.40;;
15425;SDS011;7812;50.072;7.036;2023-06-04T12:54:06;2.20;;;1.47;;
15425;SDS011;7812;50.072;7.036;2023-06-04T12:56:32;2.37;;;1.50;;
15425;SDS011;7812;50.072;7.036;2023-06-04T12:58:59;2.47;;;1.57;;
15425;SDS011;7812;50.072;7.036;2023-06-04T13:01:24;5.27;;;1.80;;
15425;SDS011;7812;50.072;7.036;2023-06-04T13:03:50;2.33;;;1.20;;
15425;SDS011;7812;50.072;7.036;2023-06-04T13:06:15;2.20;;;1.67;;
15425;SDS011;7812;50.072;7.036;2023-06-04T13:08:41;2.73;;;1.50;;
15425;SDS011;7812;50.072;7.036;2023-06-04T13:11:08;1.70;;;1.60;;
15425;SDS011;7812;50.072;7.036;2023-06-04T13:13:35;2.03;;;1.50;;
15425;SDS011;7812;50.072;7.036;2023-06-04T13:16:00;2.20;;;1.50;;
15425;SDS011;7812;50.072;7.036;2023-06-04T13:18:27;2.87;;;1.60;;
15425;SDS011;7812;50.072;7.036;2023-06-04T13:20:52;2.30;;;1.30;;
15425;SDS011;7812;50.072;7.036;2023-06-04T13:23:18;1.67;;;1.50;;
15425;SDS011;7812;50.072;7.036;2023-06-04T13:25:44;1.30;;;1.20;;
15425;SDS011;7812;50.072;7.036;2023-06-04T13:28:09;2.10;;;1.67;;
15425;SDS011;7812;50.072;7.036;2023-06-04T13:30:35;3.73;;;1.50;;
15425;SDS011;7812;50.072;7.036;2023-06-04T13:33:05;2.90;;;1.60;;
15425;SDS011;7812;50.072;7.036;2023-06-04T13:35:31;2.87;;;1.60;;
15425;SDS011;7812;50.072;7.036;2023-06-04T13:37:58;3.20;;;1.30;;
15425;SDS011;7812;50.072;7.036;2023-06-04T13:40:23;1.97;;;1.37;;
15425;SDS011;7812;50.072;7.036;2023-06-04T13:42:49;2.07;;;1.70;;
15425;SDS011;7812;50.072;7.036;2023-06-04T13:45:15;4.17;;;2.10;;
15425;SDS011;7812;50.072;7.036;2023-06-04T13:47:42;1.60;;;1.47;;
15425;SDS011;7812;50.072;7.036;2023-06-04T13:50:08;2.03;;;1.30;;
15425;SDS011;7812;50.072;7.036;2023-06-04T13:52:34;4.77;;;1.40;;
15425;SDS011;7812;50.072;7.036;2023-06-04T13:55:00;2.93;;;1.37;;
15425;SDS011;7812;50.072;7.036;2023-06-04T13:57:27;3.03;;;1.50;;
15425;SDS011;7812;50.072;7.036;2023-06-04T13:59:53;2.43;;;1.60;;
15425;SDS011;7812;50.072;7.036;2023-06-04T14:02:19;2.77;;;1.30;;
15425;SDS011;7812;50.072;7.036;2023-06-04T14:04:46;4.97;;;1.57;;
15425;SDS011;7812;50.072;7.036;2023-06-04T14:07:11;2.90;;;1.37;;
15425;SDS011;7812;50.072;7.036;2023-06-04T14:09:37;2.17;;;1.77;;
15425;SDS011;7812;50.072;7.036;2023-06-04T14:12:03;3.00;;;1.80;;
15425;SDS011;7812;50.072;7.036;2023-06-04T14:14:29;2.30;;;1.60;;
15425;SDS011;7812;50.072;7.036;2023-06-04T14:17:01;3.13;;;1.50;;
15425;SDS011;7812;50.072;7.036;2023-06-04T14:19:27;2.67;;;1.50;;
15425;SDS011;7812;50.072;7.036;2023-06-04T14:21:53;1.47;;;1.30;;
15425;SDS011;7812;50.072;7.036;2023-06-04T14:24:18;2.40;;;1.37;;
15425;SDS011;7812;50.072;7.036;2023-06-04T14:26:44;3.47;;;1.47;;
15425;SDS011;7812;50.072;7.036;2023-06-04T14:29:10;2.73;;;1.50;;
15425;SDS011;7812;50.072;7.036;2023-06-04T14:31:36;3.23;;;1.57;;
15425;SDS011;7812;50.072;7.036;2023-06-04T14:34:02;1.57;;;1.30;;
15425;SDS011;7812;50.072;7.036;2023-06-04T14:36:28;3.27;;;1.60;;
15425;SDS011;7812;50.072;7.036;2023-06-04T14:38:54;2.20;;;1.60;;
15425;SDS011;7812;50.072;7.036;2023-06-04T14:41:21;4.50;;;1.70;;
15425;SDS011;7812;50.072;7.036;2023-06-04T14:43:48;3.70;;;1.93;;
15425;SDS011;7812;50.072;7.036;2023-06-04T14:46:13;1.60;;;1.20;;
15425;SDS011;7812;50.072;7.036;2023-06-04T14:48:39;2.20;;;1.40;;
15425;SDS011;7812;50.072;7.036;2023-06-04T14:51:05;2.67;;;1.27;;
15425;SDS011;7812;50.072;7.036;2023-06-04T14:53:30;3.13;;;1.63;;
15425;SDS011;7812;50.072;7.036;2023-06-04T14:55:56;2.80;;;1.40;;
15425;SDS011;7812;50.072;7.036;2023-06-04T14:58:22;2.43;;;1.40;;
15425;SDS011;7812;50.072;7.036;2023-06-04T15:00:47;3.30;;;1.60;;
15425;SDS011;7812;50.072;7.036;2023-06-04T15:03:13;1.87;;;1.30;;
15425;SDS011;7812;50.072;7.036;2023-06-04T15:05:39;2.20;;;1.20;;
15425;SDS011;7812;50.072;7.036;2023-06-04T15:08:04;2.73;;;1.50;;
15425;SDS011;7812;50.072;7.036;2023-06-04T15:10:30;2.53;;;1.63;;
15425;SDS011;7812;50.072;7.036;2023-06-04T15:12:57;1.40;;;1.20;;